createdAt,value
2023-02-05T00:02:18.043Z,2.80
2023-02-05T00:04:46.205Z,3.30
2023-02-05T00:07:14.258Z,2.50
2023-02-05T00:09:42.332Z,2.70
2023-02-05T00:12:12.026Z,2.50
2023-02-05T00:14:40.206Z,2.97
2023-02-05T00:17:08.300Z,2.87
2023-02-05T00:19:36.401Z,2.80
2023-02-05T00:22:04.492Z,2.73
2023-02-05T00:24:32.572Z,2.90
2023-02-05T00:27:00.669Z,2.53
2023-02-05T00:29:30.200Z,2.77
2023-02-05T00:31:58.318Z,3.20
2023-02-05T00:34:26.430Z,3.57
2023-02-05T00:36:54.478Z,3.00
2023-02-05T00:39:23.983Z,3.30
2023-02-05T00:41:52.625Z,2.90
2023-02-05T00:44:20.696Z,3.43
2023-02-05T00:46:50.146Z,2.93
2023-02-05T00:49:18.629Z,2.93
2023-02-05T00:51:46.737Z,3.03
2023-02-05T00:54:14.876Z,3.03
2023-02-05T00:56:42.949Z,3.33
2023-02-05T00:59:11.112Z,3.03
2023-02-05T01:01:39.311Z,2.77
2023-02-05T01:04:08.832Z,3.27
2023-02-05T01:06:36.933Z,2.67
2023-02-05T01:09:05.191Z,2.50
2023-02-05T01:11:33.277Z,2.90
2023-02-05T01:14:01.549Z,2.33
2023-02-05T01:16:29.661Z,2.87
2023-02-05T01:18:57.767Z,2.90
2023-02-05T01:21:27.343Z,3.30
2023-02-05T01:23:56.503Z,2.57
2023-02-05T01:26:24.826Z,2.83
2023-02-05T01:28:52.890Z,3.00
2023-02-05T01:31:22.331Z,2.83
2023-02-05T01:33:50.527Z,2.93
2023-02-05T01:36:18.613Z,2.87
2023-02-05T01:38:48.902Z,3.20
2023-02-05T01:41:17.546Z,2.90
2023-02-05T01:44:00.557Z,2.90
2023-02-05T01:46:32.186Z,2.40
2023-02-05T01:49:00.885Z,2.17
2023-02-05T01:51:31.476Z,2.77
2023-02-05T01:54:01.577Z,2.87
2023-02-05T01:56:34.955Z,3.23
2023-02-05T01:59:09.508Z,2.77
2023-02-05T02:01:39.590Z,2.57
2023-02-05T02:04:09.212Z,2.90
2023-02-05T02:06:38.555Z,2.53
2023-02-05T02:09:08.695Z,3.07
2023-02-05T02:11:39.937Z,2.77
2023-02-05T02:14:10.646Z,3.27
2023-02-05T02:16:40.047Z,2.90
2023-02-05T02:19:14.746Z,3.23
2023-02-05T02:22:04.949Z,3.00
2023-02-05T02:25:04.047Z,3.00
2023-02-05T02:27:44.562Z,2.70
2023-02-05T02:30:18.379Z,2.53
2023-02-05T02:32:54.145Z,2.60
2023-02-05T02:35:28.438Z,3.20
2023-02-05T02:38:04.152Z,2.53
2023-02-05T02:40:38.197Z,2.30
2023-02-05T02:43:12.350Z,2.40
2023-02-05T02:45:48.836Z,2.90
2023-02-05T02:48:19.133Z,2.97
2023-02-05T02:50:52.724Z,2.70
2023-02-05T02:53:25.029Z,2.77
2023-02-05T02:55:56.094Z,2.57
2023-02-05T02:58:28.984Z,2.50
2023-02-05T03:00:59.101Z,2.57
2023-02-05T03:03:33.905Z,2.20
2023-02-05T03:06:06.743Z,2.40
2023-02-05T03:08:41.457Z,2.80
2023-02-05T03:11:15.100Z,2.80
2023-02-05T03:13:46.498Z,2.57
2023-02-05T03:16:17.392Z,2.57
2023-02-05T03:18:45.678Z,2.10
2023-02-05T03:21:17.805Z,2.10
2023-02-05T03:23:46.249Z,2.10
2023-02-05T03:26:25.300Z,2.60
2023-02-05T03:28:59.408Z,2.67
2023-02-05T03:31:36.776Z,2.23
2023-02-05T03:34:18.658Z,2.27
2023-02-05T03:36:58.878Z,2.33
2023-02-05T03:39:36.871Z,2.60
2023-02-05T03:42:14.009Z,2.20
2023-02-05T03:45:15.792Z,2.40
2023-02-05T03:48:02.067Z,2.00
2023-02-05T03:50:38.318Z,2.20
2023-02-05T03:53:15.515Z,2.67
2023-02-05T03:55:48.526Z,1.97
2023-02-05T03:58:23.223Z,1.97
2023-02-05T04:00:53.409Z,2.60
2023-02-05T04:03:22.856Z,2.40
2023-02-05T04:05:51.629Z,2.47
2023-02-05T04:08:20.863Z,1.60
2023-02-05T04:10:52.892Z,2.20
2023-02-05T04:13:21.163Z,1.90
2023-02-05T04:15:50.348Z,2.50
2023-02-05T04:18:20.538Z,2.00
2023-02-05T04:20:50.157Z,2.10
2023-02-05T04:23:21.924Z,2.20
2023-02-05T04:25:54.206Z,2.23
2023-02-05T04:28:26.006Z,2.83
2023-02-05T04:30:54.788Z,2.33
2023-02-05T04:33:24.278Z,2.20
2023-02-05T04:35:52.990Z,2.27
2023-02-05T04:38:22.181Z,2.60
2023-02-05T04:40:50.266Z,2.07
2023-02-05T04:43:18.348Z,2.30
2023-02-05T04:45:46.488Z,1.87
2023-02-05T04:48:14.848Z,2.17
2023-02-05T04:50:44.517Z,1.80
2023-02-05T04:53:12.627Z,1.80
2023-02-05T04:55:40.921Z,2.20
2023-02-05T04:58:08.955Z,2.10
2023-02-05T05:00:37.037Z,2.77
2023-02-05T05:03:05.138Z,2.10
2023-02-05T05:05:33.577Z,2.30
2023-02-05T05:08:03.314Z,1.90
2023-02-05T05:10:31.435Z,2.67
2023-02-05T05:12:59.550Z,1.97
2023-02-05T05:15:27.651Z,2.10
2023-02-05T05:17:55.712Z,2.37
2023-02-05T05:20:23.844Z,2.17
2023-02-05T05:22:51.923Z,2.10
2023-02-05T05:25:21.354Z,2.00
2023-02-05T05:27:49.574Z,2.07
2023-02-05T05:30:17.822Z,2.50
2023-02-05T05:32:45.924Z,1.83
2023-02-05T05:35:14.007Z,2.10
2023-02-05T05:37:42.082Z,2.43
2023-02-05T05:40:30.980Z,2.30
2023-02-05T05:43:20.263Z,2.10
2023-02-05T05:45:48.400Z,2.60
2023-02-05T05:48:16.483Z,2.10
2023-02-05T05:50:44.612Z,2.40
2023-02-05T05:53:12.703Z,2.20
2023-02-05T05:55:40.818Z,2.07
2023-02-05T05:58:10.835Z,1.87
2023-02-05T06:00:40.151Z,2.07
2023-02-05T06:03:08.238Z,2.00
2023-02-05T06:05:36.559Z,2.20
2023-02-05T06:08:05.403Z,2.17
2023-02-05T06:10:34.823Z,2.17
2023-02-05T06:13:02.993Z,1.80
2023-02-05T06:15:32.588Z,2.20
2023-02-05T06:18:00.800Z,2.33
2023-02-05T06:20:28.992Z,2.23
2023-02-05T06:22:57.138Z,2.23
2023-02-05T06:25:25.324Z,2.10
2023-02-05T06:27:53.467Z,2.30
2023-02-05T06:30:21.760Z,2.03
2023-02-05T06:32:51.397Z,2.03
2023-02-05T06:35:19.650Z,2.00
2023-02-05T06:37:47.956Z,2.10
2023-02-05T06:40:18.178Z,2.30
2023-02-05T06:42:46.509Z,2.03
2023-02-05T06:45:14.772Z,1.73
2023-02-05T06:47:42.851Z,2.10
2023-02-05T06:50:12.507Z,1.90
2023-02-05T06:52:40.656Z,1.70
2023-02-05T06:55:09.104Z,2.20
2023-02-05T06:57:37.183Z,1.90
2023-02-05T07:00:06.552Z,1.63
2023-02-05T07:02:34.684Z,2.03
2023-02-05T07:05:03.095Z,2.03
2023-02-05T07:07:33.257Z,2.47
2023-02-05T07:10:01.906Z,2.50
2023-02-05T07:12:30.206Z,2.13
2023-02-05T07:14:58.302Z,2.20
2023-02-05T07:17:26.614Z,1.93
2023-02-05T07:19:54.717Z,2.50
2023-02-05T07:22:22.860Z,2.13
2023-02-05T07:24:52.424Z,2.40
2023-02-05T07:27:20.616Z,2.17
2023-02-05T07:29:48.702Z,2.00
2023-02-05T07:32:16.789Z,2.00
2023-02-05T07:34:44.949Z,2.57
2023-02-05T07:37:14.278Z,2.00
2023-02-05T07:39:42.776Z,2.30
2023-02-05T07:42:12.294Z,2.00
2023-02-05T07:44:49.064Z,2.07
2023-02-05T07:47:17.236Z,2.30
2023-02-05T07:49:45.314Z,1.90
2023-02-05T07:52:13.509Z,2.50
2023-02-05T07:54:41.749Z,2.00
2023-02-05T07:57:11.184Z,2.30
2023-02-05T07:59:39.373Z,2.63
2023-02-05T08:02:07.682Z,3.03
2023-02-05T08:04:35.853Z,2.80
2023-02-05T08:07:03.980Z,3.40
2023-02-05T08:09:32.063Z,2.70
2023-02-05T08:12:00.157Z,3.00
2023-02-05T08:14:31.210Z,3.23
2023-02-05T08:16:59.372Z,3.37
2023-02-05T08:19:27.710Z,3.10
2023-02-05T08:21:55.870Z,2.80
2023-02-05T08:24:23.954Z,2.50
2023-02-05T08:26:52.060Z,3.20
2023-02-05T08:29:20.137Z,3.40
2023-02-05T08:31:49.636Z,3.50
2023-02-05T08:34:20.558Z,3.00
2023-02-05T08:36:48.928Z,2.70
2023-02-05T08:39:17.012Z,3.07
2023-02-05T08:41:45.135Z,2.83
2023-02-05T08:44:13.247Z,2.83
2023-02-05T08:46:49.682Z,3.00
2023-02-05T08:49:20.155Z,2.93
2023-02-05T08:51:48.647Z,3.10
2023-02-05T08:54:16.796Z,2.87
2023-02-05T08:56:46.556Z,3.03
2023-02-05T08:59:14.949Z,2.67
2023-02-05T09:01:43.501Z,2.70
2023-02-05T09:04:15.082Z,2.93
2023-02-05T09:06:44.913Z,3.30
2023-02-05T09:09:14.102Z,3.00
2023-02-05T09:11:42.236Z,3.07
2023-02-05T09:14:10.936Z,3.13
2023-02-05T09:16:39.542Z,2.80
2023-02-05T09:19:08.346Z,3.10
2023-02-05T09:21:36.643Z,2.70
2023-02-05T09:24:06.695Z,2.80
2023-02-05T09:26:35.599Z,2.90
2023-02-05T09:29:04.035Z,2.63
2023-02-05T09:31:32.212Z,2.53
2023-02-05T09:34:02.766Z,2.50
2023-02-05T09:36:30.878Z,2.60
2023-02-05T09:39:12.984Z,2.60
2023-02-05T09:41:52.150Z,2.90
2023-02-05T09:44:31.680Z,2.40
2023-02-05T09:47:06.768Z,2.83
2023-02-05T09:49:39.566Z,2.67
2023-02-05T09:52:16.115Z,2.33
2023-02-05T09:54:47.477Z,2.57
2023-02-05T09:57:21.152Z,2.90
2023-02-05T09:59:49.500Z,2.43
2023-02-05T10:02:25.951Z,2.77
2023-02-05T10:04:55.148Z,2.80
2023-02-05T10:07:42.328Z,2.43
2023-02-05T10:10:25.221Z,2.17
2023-02-05T10:13:21.543Z,2.53
2023-02-05T10:16:01.681Z,2.63
2023-02-05T10:18:39.265Z,2.20
2023-02-05T10:21:21.022Z,2.73
2023-02-05T10:24:07.569Z,3.00
2023-02-05T10:26:42.803Z,2.90
2023-02-05T10:29:32.355Z,3.00
2023-02-05T10:32:22.825Z,2.37
2023-02-05T10:34:57.884Z,3.20
2023-02-05T10:37:35.260Z,2.70
2023-02-05T10:40:11.619Z,2.70
2023-02-05T10:42:43.086Z,2.40
2023-02-05T10:45:19.228Z,2.50
2023-02-05T10:48:07.978Z,2.90
2023-02-05T10:50:50.112Z,3.00
2023-02-05T10:53:21.619Z,2.63
2023-02-05T10:55:50.071Z,2.43
2023-02-05T10:58:35.265Z,3.30
2023-02-05T11:01:06.441Z,2.20
2023-02-05T11:03:35.677Z,2.80
2023-02-05T11:06:08.352Z,2.33
2023-02-05T11:08:38.876Z,2.40
2023-02-05T11:11:08.865Z,2.77
2023-02-05T11:13:42.901Z,2.33
2023-02-05T11:16:12.607Z,2.53
2023-02-05T11:18:44.081Z,2.47
2023-02-05T11:21:12.828Z,2.67
2023-02-05T11:23:43.073Z,3.07
2023-02-05T11:26:18.677Z,2.57
2023-02-05T11:28:47.043Z,2.40
2023-02-05T11:31:27.054Z,2.80
2023-02-05T11:34:12.832Z,3.30
2023-02-05T11:36:49.886Z,2.93
2023-02-05T11:39:30.700Z,3.20
2023-02-05T11:41:58.954Z,2.57
2023-02-05T11:44:30.405Z,3.10
2023-02-05T11:47:02.620Z,2.50
2023-02-05T11:49:34.034Z,2.60
2023-02-05T11:52:08.663Z,2.90
2023-02-05T11:54:38.422Z,3.07
2023-02-05T11:57:24.393Z,2.50
2023-02-05T11:59:57.083Z,2.50
2023-02-05T12:02:32.430Z,2.40
2023-02-05T12:05:07.446Z,2.80
2023-02-05T12:07:40.194Z,2.30
2023-02-05T12:10:16.771Z,2.60
2023-02-05T12:12:57.425Z,2.90
2023-02-05T12:15:28.561Z,2.10
2023-02-05T12:18:06.602Z,2.50
2023-02-05T12:20:39.329Z,2.83
2023-02-05T12:23:29.912Z,3.07
2023-02-05T12:26:18.737Z,2.20
2023-02-05T12:28:58.515Z,2.73
2023-02-05T12:31:39.919Z,2.53
2023-02-05T12:34:24.600Z,2.60
2023-02-05T12:37:22.471Z,3.37
2023-02-05T12:39:55.243Z,3.47
2023-02-05T12:42:33.195Z,3.10
2023-02-05T12:45:18.802Z,2.20
2023-02-05T12:47:58.914Z,2.63
2023-02-05T12:50:50.826Z,3.10
2023-02-05T12:54:00.150Z,3.43
2023-02-05T12:56:50.056Z,2.63
2023-02-05T12:59:24.824Z,3.13
2023-02-05T13:01:57.866Z,3.07
2023-02-05T13:04:31.724Z,3.10
2023-02-05T13:07:11.668Z,3.50
2023-02-05T13:09:48.602Z,3.30
2023-02-05T13:12:20.316Z,2.90
2023-02-05T13:14:57.569Z,2.57
2023-02-05T13:17:29.187Z,3.30
2023-02-05T13:20:00.545Z,2.90
2023-02-05T13:22:52.575Z,3.20
2023-02-05T13:25:44.280Z,3.87
2023-02-05T13:28:39.698Z,2.93
2023-02-05T13:31:14.389Z,3.23
2023-02-05T13:33:43.630Z,3.00
2023-02-05T13:36:36.655Z,2.83
2023-02-05T13:39:33.851Z,3.10
2023-02-05T13:42:20.542Z,2.73
2023-02-05T13:45:19.276Z,3.23
2023-02-05T13:48:14.523Z,2.50
2023-02-05T13:51:19.197Z,2.93
2023-02-05T13:54:02.633Z,3.77
2023-02-05T13:56:49.046Z,3.30
2023-02-05T13:59:23.450Z,2.90
2023-02-05T14:01:56.321Z,3.20
2023-02-05T14:04:27.985Z,3.20
2023-02-05T14:07:02.639Z,3.80
2023-02-05T14:09:36.302Z,2.80
2023-02-05T14:12:08.769Z,3.13
2023-02-05T14:14:38.155Z,3.00
2023-02-05T14:17:39.304Z,3.10
2023-02-05T14:20:33.052Z,3.13
2023-02-05T14:23:04.351Z,3.63
2023-02-05T14:26:20.450Z,3.17
2023-02-05T14:28:52.029Z,3.10
2023-02-05T14:31:59.594Z,3.03
2023-02-05T14:34:48.020Z,3.43
2023-02-05T14:37:40.656Z,2.70
2023-02-05T14:40:31.823Z,3.00
2023-02-05T14:43:10.343Z,3.23
2023-02-05T14:45:47.371Z,3.20
2023-02-05T14:48:25.671Z,3.57
2023-02-05T14:51:06.664Z,3.20
2023-02-05T14:53:37.274Z,3.30
2023-02-05T14:56:06.928Z,3.50
2023-02-05T14:58:38.531Z,3.30
2023-02-05T15:01:45.789Z,3.40
2023-02-05T15:04:35.472Z,3.40
2023-02-05T15:07:12.161Z,3.17
2023-02-05T15:09:44.523Z,3.57
2023-02-05T15:12:57.594Z,4.30
2023-02-05T15:15:32.731Z,3.50
2023-02-05T15:18:17.809Z,3.60
2023-02-05T15:20:49.976Z,3.60
2023-02-05T15:23:31.879Z,3.47
2023-02-05T15:26:03.664Z,3.23
2023-02-05T15:28:39.366Z,4.13
2023-02-05T15:31:31.790Z,3.77
2023-02-05T15:34:08.026Z,4.20
2023-02-05T15:36:42.754Z,3.90
2023-02-05T15:39:26.767Z,3.13
2023-02-05T15:41:58.803Z,3.30
2023-02-05T15:44:30.330Z,3.47
2023-02-05T15:47:01.156Z,3.37
2023-02-05T15:49:37.488Z,3.40
2023-02-05T15:52:07.982Z,3.90
2023-02-05T15:54:38.037Z,3.50
2023-02-05T15:57:08.794Z,3.47
2023-02-05T15:59:36.967Z,3.53
2023-02-05T16:02:08.970Z,3.90
2023-02-05T16:04:39.189Z,3.40
2023-02-05T16:07:22.161Z,3.90
2023-02-05T16:09:53.809Z,3.60
2023-02-05T16:12:22.761Z,3.90
2023-02-05T16:15:05.423Z,3.17
2023-02-05T16:17:40.659Z,3.90
2023-02-05T16:20:18.674Z,3.43
2023-02-05T16:22:52.526Z,3.63
2023-02-05T16:25:33.564Z,4.00
2023-02-05T16:28:04.983Z,3.00
2023-02-05T16:30:42.628Z,4.10
2023-02-05T16:33:20.739Z,3.80
2023-02-05T16:35:49.767Z,3.90
2023-02-05T16:38:24.817Z,3.90
2023-02-05T16:40:56.530Z,3.60
2023-02-05T16:43:32.183Z,2.87
2023-02-05T16:46:25.591Z,3.70
2023-02-05T16:48:56.630Z,3.70
2023-02-05T16:51:36.818Z,4.00
2023-02-05T16:54:28.542Z,4.10
2023-02-05T16:57:03.942Z,3.97
2023-02-05T16:59:35.028Z,3.17
2023-02-05T17:02:04.798Z,3.70
2023-02-05T17:04:36.894Z,3.63
2023-02-05T17:07:08.450Z,3.60
2023-02-05T17:09:40.061Z,3.50
2023-02-05T17:12:39.326Z,3.90
2023-02-05T17:15:36.610Z,4.30
2023-02-05T17:18:24.719Z,4.93
2023-02-05T17:20:52.970Z,3.90
2023-02-05T17:23:21.075Z,5.40
2023-02-05T17:25:55.598Z,4.57
2023-02-05T17:28:26.012Z,4.47
2023-02-05T17:30:57.641Z,5.50
2023-02-05T17:33:28.332Z,4.60
2023-02-05T17:35:56.519Z,4.10
2023-02-05T17:38:24.715Z,4.77
2023-02-05T17:41:14.438Z,3.83
2023-02-05T17:43:42.827Z,3.90
2023-02-05T17:46:15.070Z,3.90
2023-02-05T17:48:44.689Z,3.70
2023-02-05T17:51:20.100Z,4.00
2023-02-05T17:53:48.460Z,3.70
2023-02-05T17:56:19.506Z,5.37
2023-02-05T17:58:47.910Z,4.07
2023-02-05T18:01:16.382Z,4.10
2023-02-05T18:03:44.625Z,4.50
2023-02-05T18:06:14.980Z,4.90
2023-02-05T18:08:43.444Z,4.27
2023-02-05T18:11:11.776Z,3.80
2023-02-05T18:13:41.244Z,4.10
2023-02-05T18:16:12.151Z,4.27
2023-02-05T18:18:40.497Z,4.07
2023-02-05T18:21:08.745Z,3.83
2023-02-05T18:23:37.047Z,4.07
2023-02-05T18:26:07.200Z,3.80
2023-02-05T18:28:35.591Z,4.40
2023-02-05T18:31:07.291Z,4.47
2023-02-05T18:33:36.408Z,4.67
2023-02-05T18:36:09.652Z,4.17
2023-02-05T18:38:38.516Z,4.40
2023-02-05T18:41:08.361Z,5.00
2023-02-05T18:43:37.299Z,4.40
2023-02-05T18:46:07.976Z,4.83
2023-02-05T18:48:36.340Z,4.20
2023-02-05T18:51:08.978Z,3.50
2023-02-05T18:53:38.007Z,4.97
2023-02-05T18:56:09.496Z,4.67
2023-02-05T18:58:38.279Z,4.00
2023-02-05T19:01:11.958Z,3.60
2023-02-05T19:03:40.811Z,4.00
2023-02-05T19:06:09.767Z,5.33
2023-02-05T19:08:38.548Z,3.80
2023-02-05T19:11:08.069Z,4.20
2023-02-05T19:13:37.345Z,4.67
2023-02-05T19:16:07.429Z,4.83
2023-02-05T19:18:36.987Z,4.57
2023-02-05T19:21:06.081Z,3.90
2023-02-05T19:23:34.691Z,4.37
2023-02-05T19:26:07.383Z,4.40
2023-02-05T19:28:35.852Z,4.27
2023-02-05T19:31:04.592Z,5.10
2023-02-05T19:33:33.533Z,4.10
2023-02-05T19:36:04.740Z,4.97
2023-02-05T19:38:34.993Z,4.27
2023-02-05T19:41:07.023Z,4.50
2023-02-05T19:43:35.214Z,4.83
2023-02-05T19:46:04.217Z,4.93
2023-02-05T19:48:32.698Z,4.20
2023-02-05T19:51:06.127Z,4.23
2023-02-05T19:53:34.906Z,4.10
2023-02-05T19:56:09.748Z,4.53
2023-02-05T19:58:39.739Z,4.40
2023-02-05T20:01:12.615Z,3.90
2023-02-05T20:03:41.237Z,4.17
2023-02-05T20:06:12.703Z,4.33
2023-02-05T20:08:41.047Z,4.13
2023-02-05T20:11:09.484Z,4.20
2023-02-05T20:13:38.608Z,4.40
2023-02-05T20:16:10.515Z,5.00
2023-02-05T20:18:39.022Z,4.27
2023-02-05T20:21:07.904Z,4.30
2023-02-05T20:23:37.738Z,4.57
2023-02-05T20:26:07.836Z,3.90
2023-02-05T20:28:57.826Z,4.53
2023-02-05T20:31:34.316Z,5.27
2023-02-05T20:34:03.210Z,4.30
2023-02-05T20:36:33.093Z,4.20
2023-02-05T20:39:06.865Z,4.00
2023-02-05T20:41:35.430Z,3.97
2023-02-05T20:44:04.241Z,4.13
2023-02-05T20:46:32.476Z,4.40
2023-02-05T20:49:01.100Z,5.20
2023-02-05T20:51:29.348Z,4.13
2023-02-05T20:53:58.120Z,4.00
2023-02-05T20:56:28.999Z,5.03
2023-02-05T20:58:59.944Z,4.77
2023-02-05T21:01:29.689Z,4.57
2023-02-05T21:04:00.011Z,4.93
2023-02-05T21:06:30.128Z,4.63
2023-02-05T21:08:58.629Z,5.87
2023-02-05T21:11:29.480Z,4.00
2023-02-05T21:13:58.657Z,5.00
2023-02-05T21:16:28.323Z,6.33
2023-02-05T21:18:56.981Z,5.50
2023-02-05T21:21:26.932Z,5.37
2023-02-05T21:23:55.557Z,4.90
2023-02-05T21:26:26.077Z,5.33
2023-02-05T21:28:56.990Z,4.47
2023-02-05T21:31:26.576Z,3.80
2023-02-05T21:33:54.729Z,5.47
2023-02-05T21:36:24.361Z,4.40
2023-02-05T21:38:52.486Z,6.57
2023-02-05T21:41:20.902Z,4.43
2023-02-05T21:43:53.410Z,4.10
2023-02-05T21:46:24.084Z,4.27
2023-02-05T21:48:54.108Z,4.10
2023-02-05T21:51:24.604Z,4.50
2023-02-05T21:53:57.066Z,4.60
2023-02-05T21:56:26.863Z,4.80
2023-02-05T21:58:55.250Z,4.10
2023-02-05T22:01:26.540Z,4.40
2023-02-05T22:03:56.536Z,4.17
2023-02-05T22:06:26.720Z,4.43
2023-02-05T22:08:56.241Z,4.67
2023-02-05T22:11:25.405Z,4.47
2023-02-05T22:13:54.845Z,4.07
2023-02-05T22:16:26.549Z,4.73
2023-02-05T22:18:55.659Z,4.10
2023-02-05T22:21:25.859Z,3.90
2023-02-05T22:23:57.110Z,3.97
2023-02-05T22:26:26.985Z,3.87
2023-02-05T22:28:57.367Z,4.13
2023-02-05T22:31:27.992Z,3.53
2023-02-05T22:33:56.655Z,3.77
2023-02-05T22:36:27.430Z,4.40
2023-02-05T22:38:56.617Z,3.47
2023-02-05T22:41:26.445Z,4.53
2023-02-05T22:43:55.061Z,4.03
2023-02-05T22:46:25.531Z,3.50
2023-02-05T22:48:55.882Z,4.23
2023-02-05T22:51:26.061Z,3.70
2023-02-05T22:53:54.999Z,3.80
2023-02-05T22:56:23.630Z,4.70
2023-02-05T22:58:52.915Z,3.40
2023-02-05T23:01:22.959Z,3.50
2023-02-05T23:03:52.137Z,3.60
2023-02-05T23:06:23.683Z,3.73
2023-02-05T23:08:53.013Z,4.00
2023-02-05T23:11:22.220Z,3.70
2023-02-05T23:13:50.771Z,3.20
2023-02-05T23:16:21.519Z,3.50
2023-02-05T23:18:50.589Z,3.67
2023-02-05T23:21:22.088Z,3.60
2023-02-05T23:23:50.674Z,3.70
2023-02-05T23:26:20.786Z,3.80
2023-02-05T23:32:30.334Z,4.23
2023-02-05T23:34:58.492Z,3.60
2023-02-05T23:37:28.036Z,3.80
2023-02-05T23:39:56.306Z,3.73
2023-02-05T23:42:24.411Z,4.83
2023-02-05T23:44:52.531Z,3.40
2023-02-05T23:47:21.236Z,3.43
2023-02-05T23:49:49.350Z,3.50
2023-02-05T23:52:19.134Z,4.00
2023-02-05T23:54:48.597Z,3.37
2023-02-05T23:57:16.714Z,3.17
2023-02-05T23:59:44.824Z,3.53
